Time;durP1;ratioP1;P1;durP2;ratioP2;P2;SDS_P1;SDS_P2;PMS_P1;PMS_P2;Temp;Humidity;BMP_temperature;BMP_pressure;BME280_temperature;BME280_humidity;BME280_pressure;Samples;Min_cycle;Max_cycle;Signal;HPM_P1;HPM_P2
2021/07/12 00:01:04;;;;;;;73.17;51.70;;;;;;;18.80;79.87;100204.09;5074363;28;20500;-73
2021/07/12 00:03:30;;;;;;;82.93;51.90;;;;;;;18.75;80.14;100198.41;5083844;28;20535;-73
2021/07/12 00:05:57;;;;;;;83.60;51.33;;;;;;;18.80;79.68;100205.94;5082848;28;20531;-73
2021/07/12 00:08:24;;;;;;;80.17;52.30;;;;;;;18.80;79.61;100214.06;5082682;28;20468;-74
2021/07/12 00:10:50;;;;;;;74.93;53.73;;;;;;;18.77;80.13;100206.34;5079422;28;20480;-74
2021/07/12 00:13:17;;;;;;;85.13;54.53;;;;;;;18.75;80.10;100211.94;5063499;28;21138;-74
2021/07/12 00:15:45;;;;;;;87.90;54.83;;;;;;;18.60;80.41;100205.78;5080585;28;20952;-73
2021/07/12 00:18:12;;;;;;;89.77;56.70;;;;;;;18.62;80.56;100201.00;5083082;28;20524;-73
2021/07/12 00:20:38;;;;;;;82.23;51.03;;;;;;;18.64;80.17;100204.34;5068676;28;20535;-73
2021/07/12 00:23:05;;;;;;;67.73;48.43;;;;;;;18.76;79.33;100202.78;5083522;28;20456;-73
2021/07/12 00:25:32;;;;;;;72.63;49.57;;;;;;;18.96;78.58;100191.31;5075313;28;20481;-73
2021/07/12 00:27:59;;;;;;;69.73;49.17;;;;;;;18.94;77.98;100179.81;5062953;28;20521;-73
2021/07/12 00:30:26;;;;;;;73.37;52.23;;;;;;;18.92;78.63;100171.06;5064925;28;20524;-73
2021/07/12 00:32:56;;;;;;;75.77;49.63;;;;;;;18.81;78.72;100181.34;5072018;28;20513;-73
2021/07/12 00:35:23;;;;;;;76.40;49.67;;;;;;;18.77;79.18;100173.84;5062736;28;20515;-74
2021/07/12 00:37:51;;;;;;;70.97;49.67;;;;;;;18.84;78.93;100174.75;5078235;28;20464;-73
2021/07/12 00:40:19;;;;;;;67.67;47.90;;;;;;;18.90;78.46;100181.25;5083010;28;20472;-78
2021/07/12 00:42:49;;;;;;;62.37;45.00;;;;;;;18.90;77.93;100183.97;5069361;28;20485;-78
2021/07/12 00:45:18;;;;;;;63.43;46.33;;;;;;;18.95;77.69;100171.50;5063567;28;20456;-74
2021/07/12 00:47:45;;;;;;;69.30;47.17;;;;;;;19.02;77.36;100168.84;5082397;28;20507;-78
2021/07/12 00:50:14;;;;;;;66.23;49.20;;;;;;;18.92;77.86;100171.91;5079602;28;20480;-78
2021/07/12 00:52:40;;;;;;;69.33;47.50;;;;;;;18.81;78.51;100161.56;5068478;28;20567;-78
2021/07/12 00:55:15;;;;;;;67.67;48.80;;;;;;;18.48;80.00;100166.72;5062978;28;20573;-78
2021/07/12 00:57:42;;;;;;;74.33;50.40;;;;;;;18.40;80.00;100165.81;5068182;28;20459;-72
2021/07/12 01:00:10;;;;;;;75.03;50.57;;;;;;;18.31;80.55;100171.53;5082359;28;20556;-73
2021/07/12 01:02:37;;;;;;;76.50;51.33;;;;;;;18.30;80.63;100167.16;5046707;28;20512;-73
2021/07/12 01:05:05;;;;;;;76.47;50.40;;;;;;;18.24;80.87;100174.19;5081832;28;20476;-73
2021/07/12 01:07:33;;;;;;;88.43;52.37;;;;;;;18.13;81.54;100182.81;5065503;28;20504;-73
2021/07/12 01:10:00;;;;;;;70.90;48.80;;;;;;;18.15;81.23;100180.75;5077222;28;20563;-73
2021/07/12 01:12:31;;;;;;;77.87;51.20;;;;;;;18.30;80.97;100183.38;5081221;28;20515;-73
2021/07/12 01:15:02;;;;;;;78.73;50.57;;;;;;;18.29;80.89;100182.56;5082331;28;20530;-73
2021/07/12 01:17:33;;;;;;;75.27;50.03;;;;;;;18.30;80.93;100183.38;5078049;28;20491;-73
2021/07/12 01:20:35;;;;;;;75.00;50.07;;;;;;;18.38;80.06;100169.75;5081295;28;20449;-74
2021/07/12 01:23:25;;;;;;;70.53;48.00;;;;;;;18.52;79.44;100173.41;5080000;28;20568;-74
2021/07/12 01:26:36;;;;;;;71.30;47.60;;;;;;;18.53;79.34;100170.50;5062343;28;20492;-74
2021/07/12 01:29:14;;;;;;;69.63;47.77;;;;;;;18.44;79.60;100175.22;5009553;28;20516;-73
2021/07/12 01:32:01;;;;;;;72.40;47.00;;;;;;;18.46;79.64;100179.63;5000909;28;21172;-74
2021/07/12 01:34:34;;;;;;;68.40;44.80;;;;;;;18.46;79.40;100172.31;5014408;28;20521;-74
2021/07/12 01:37:07;;;;;;;64.37;45.00;;;;;;;18.42;79.55;100174.59;5018147;28;20487;-74
2021/07/12 01:39:36;;;;;;;75.40;47.10;;;;;;;18.39;79.81;100174.97;5000444;28;20519;-74
2021/07/12 01:42:05;;;;;;;68.00;47.03;;;;;;;18.40;79.83;100179.34;5016001;28;20550;-79
2021/07/12 01:44:38;;;;;;;71.90;46.40;;;;;;;18.35;79.53;100170.13;5019550;28;20451;-79
2021/07/12 01:47:08;;;;;;;65.00;45.13;;;;;;;18.33;79.61;100159.50;5017764;28;20651;-79
2021/07/12 01:49:41;;;;;;;65.63;43.60;;;;;;;18.34;79.60;100161.16;5015499;28;20653;-78
2021/07/12 01:52:11;;;;;;;60.50;41.00;;;;;;;18.45;78.87;100162.50;4999713;28;20551;-78
2021/07/12 01:54:40;;;;;;;59.20;42.03;;;;;;;18.43;78.68;100167.28;5000862;28;20487;-78
2021/07/12 01:57:09;;;;;;;66.40;43.33;;;;;;;18.23;79.55;100162.53;5008196;28;20498;-78
2021/07/12 01:59:39;;;;;;;61.87;41.10;;;;;;;18.26;79.25;100155.88;5014942;28;20487;-78
2021/07/12 02:02:07;;;;;;;60.07;41.23;;;;;;;18.28;79.17;100156.53;5003012;28;20496;-78
2021/07/12 02:04:34;;;;;;;57.57;38.67;;;;;;;18.31;78.78;100148.03;5020377;28;20536;-78
2021/07/12 02:07:03;;;;;;;60.30;42.83;;;;;;;18.34;78.57;100144.94;5064577;28;20519;-78
2021/07/12 02:09:29;;;;;;;66.03;41.83;;;;;;;18.23;78.91;100148.16;5068268;28;20465;-78
2021/07/12 02:11:58;;;;;;;63.50;43.07;;;;;;;18.14;79.27;100143.91;5062731;28;20505;-78
2021/07/12 02:14:25;;;;;;;63.27;42.60;;;;;;;18.10;79.51;100148.84;5073763;28;20547;-78
2021/07/12 02:16:53;;;;;;;60.77;42.43;;;;;;;18.10;79.15;100140.75;5066768;28;20515;-78
2021/07/12 02:19:20;;;;;;;48.83;36.97;;;;;;;18.31;78.51;100134.50;5068035;28;20505;-78
2021/07/12 02:21:48;;;;;;;50.57;37.43;;;;;;;18.30;78.07;100124.72;5061349;28;20501;-78
2021/07/12 02:24:17;;;;;;;55.93;38.93;;;;;;;18.28;77.64;100128.63;5079173;28;20467;-78
2021/07/12 02:26:44;;;;;;;58.57;40.20;;;;;;;18.20;78.31;100135.03;5073024;28;20477;-78
2021/07/12 02:29:12;;;;;;;53.10;38.07;;;;;;;18.12;78.94;100135.13;5072398;28;20512;-78
2021/07/12 02:31:39;;;;;;;60.70;40.07;;;;;;;18.12;78.79;100127.84;5062573;28;20553;-78
2021/07/12 02:34:06;;;;;;;53.30;38.00;;;;;;;18.27;78.22;100125.09;5062271;28;20546;-74
2021/07/12 02:36:33;;;;;;;52.50;39.67;;;;;;;18.15;78.57;100124.78;5061174;28;20557;-74
2021/07/12 02:39:01;;;;;;;57.30;39.03;;;;;;;18.00;79.48;100121.28;5061926;28;20449;-78
2021/07/12 02:41:29;;;;;;;55.40;39.43;;;;;;;17.90;79.94;100126.16;5079313;28;20491;-78
2021/07/12 02:43:56;;;;;;;51.80;39.47;;;;;;;17.69;80.53;100131.34;5081426;28;20491;-78
2021/07/12 02:46:25;;;;;;;51.97;37.10;;;;;;;17.82;80.12;100127.94;5062665;28;20501;-77
2021/07/12 02:48:52;;;;;;;54.70;37.87;;;;;;;17.82;80.11;100119.00;5061186;28;20548;-77
2021/07/12 02:51:22;;;;;;;52.00;37.80;;;;;;;17.75;80.26;100120.78;5064855;28;21116;-77
2021/07/12 02:53:51;;;;;;;52.73;36.43;;;;;;;17.90;79.88;100118.91;5083655;28;20520;-78
2021/07/12 02:56:17;;;;;;;58.67;37.07;;;;;;;17.80;79.74;100108.34;5082640;28;20809;-78
2021/07/12 02:58:46;;;;;;;50.20;36.30;;;;;;;17.68;80.06;100120.69;5065449;28;20540;-73
2021/07/12 03:01:13;;;;;;;56.60;38.47;;;;;;;17.57;80.87;100113.06;5069323;28;20501;-78
2021/07/12 03:03:39;;;;;;;50.70;34.67;;;;;;;17.61;80.70;100114.38;5065122;28;20544;-78
2021/07/12 03:06:10;;;;;;;54.27;35.63;;;;;;;17.52;80.84;100116.38;5078055;28;20483;-78
2021/07/12 03:08:41;;;;;;;54.07;35.70;;;;;;;17.54;80.92;100116.19;5079526;28;20493;-78
2021/07/12 03:11:10;;;;;;;63.27;35.17;;;;;;;17.62;80.63;100110.63;5064311;28;20493;-78
2021/07/12 03:13:42;;;;;;;49.23;34.73;;;;;;;17.59;80.42;100122.69;5075687;28;20484;-77
2021/07/12 03:16:11;;;;;;;52.00;34.80;;;;;;;17.68;80.64;100126.94;5075802;28;20485;-78
2021/07/12 03:18:41;;;;;;;46.83;33.27;;;;;;;17.62;80.51;100122.31;5065027;28;20457;-78
2021/07/12 03:21:08;;;;;;;53.17;36.33;;;;;;;17.63;80.54;100123.97;5043881;28;20502;-75
2021/07/12 03:23:39;;;;;;;54.50;35.63;;;;;;;17.72;80.02;100132.81;5044593;28;20536;-79
2021/07/12 03:26:07;;;;;;;44.70;32.07;;;;;;;17.88;79.62;100123.69;5079116;28;20496;-78
2021/07/12 03:28:35;;;;;;;41.73;33.27;;;;;;;17.90;79.56;100121.63;5084302;28;20449;-79
2021/07/12 03:31:02;;;;;;;46.37;32.13;;;;;;;17.95;79.30;100121.88;5071295;28;20472;-78
2021/07/12 03:33:31;;;;;;;47.60;33.17;;;;;;;17.88;79.61;100112.84;5083685;28;20512;-78
2021/07/12 03:35:59;;;;;;;42.63;31.30;;;;;;;17.95;79.26;100107.50;5083444;28;20505;-78
2021/07/12 03:38:26;;;;;;;43.43;30.20;;;;;;;18.10;78.93;100099.31;5083767;28;20491;-79
2021/07/12 03:40:53;;;;;;;46.63;31.67;;;;;;;18.08;78.51;100098.69;5070128;28;20472;-78
2021/07/12 03:43:22;;;;;;;38.13;29.13;;;;;;;18.10;78.54;100092.03;5083740;28;20455;-78
2021/07/12 03:45:53;;;;;;;45.90;31.20;;;;;;;18.32;77.69;100097.47;5081599;28;20515;-78
2021/07/12 03:48:20;;;;;;;40.40;30.20;;;;;;;18.54;76.69;100099.09;5063906;28;20545;-78
2021/07/12 03:50:48;;;;;;;36.00;27.80;;;;;;;18.57;76.00;100100.56;5064141;28;20477;-79
2021/07/12 03:53:14;;;;;;;40.30;29.77;;;;;;;18.38;76.59;100115.59;5064616;28;20472;-78
2021/07/12 03:55:41;;;;;;;39.60;28.50;;;;;;;18.25;77.17;100117.16;5063621;28;20533;-78
2021/07/12 03:58:08;;;;;;;44.80;29.53;;;;;;;18.30;76.76;100113.03;5075018;28;20467;-78
2021/07/12 04:00:35;;;;;;;38.53;27.50;;;;;;;18.33;77.05;100116.22;5071259;28;20496;-78
2021/07/12 04:03:01;;;;;;;42.53;29.27;;;;;;;18.49;76.22;100109.69;5064019;28;20449;-78
2021/07/12 04:05:28;;;;;;;41.40;28.30;;;;;;;18.51;75.97;100112.19;5063669;28;20473;-78
2021/07/12 04:07:57;;;;;;;40.30;28.70;;;;;;;18.30;76.69;100113.03;5064067;28;20465;-78
2021/07/12 04:10:24;;;;;;;36.83;26.30;;;;;;;18.18;77.19;100110.84;5064013;28;20492;-78
2021/07/12 04:12:51;;;;;;;37.17;28.90;;;;;;;17.99;77.74;100106.94;5064618;28;20477;-78
2021/07/12 04:15:18;;;;;;;35.30;27.10;;;;;;;18.10;77.72;100099.31;5071005;28;20589;-78
2021/07/12 04:17:45;;;;;;;34.43;26.90;;;;;;;18.12;77.61;100108.09;5063595;28;20449;-78
2021/07/12 04:20:12;;;;;;;37.37;27.80;;;;;;;17.90;77.83;100108.09;5070146;28;20480;-77
2021/07/12 04:22:39;;;;;;;35.83;28.53;;;;;;;18.06;77.78;100093.47;5064612;28;20509;-77
2021/07/12 04:25:09;;;;;;;38.70;27.37;;;;;;;18.09;77.77;100092.22;5064072;28;20497;-77
2021/07/12 04:27:35;;;;;;;37.53;28.57;;;;;;;18.03;77.73;100091.97;5082094;28;20961;-78
2021/07/12 04:30:03;;;;;;;44.20;29.00;;;;;;;18.11;77.61;100096.44;5058519;28;20449;-78
2021/07/12 04:32:29;;;;;;;39.07;28.10;;;;;;;18.30;76.91;100096.78;5061139;28;20540;-77
2021/07/12 04:34:56;;;;;;;41.83;28.87;;;;;;;18.48;76.80;100099.88;5060030;28;20517;-79
2021/07/12 04:37:23;;;;;;;36.33;27.20;;;;;;;18.85;75.28;100113.28;5061403;28;20477;-79
2021/07/12 04:39:50;;;;;;;46.37;27.27;;;;;;;18.82;74.92;100106.41;5081785;28;20556;-78
2021/07/12 04:42:18;;;;;;;40.80;26.87;;;;;;;18.90;74.37;100099.97;5081034;28;20507;-80
2021/07/12 04:44:45;;;;;;;34.23;25.70;;;;;;;18.98;74.46;100099.84;5065450;28;20488;-79
2021/07/12 04:47:12;;;;;;;37.60;24.73;;;;;;;19.04;74.12;100090.91;5066407;28;20488;-78
2021/07/12 04:49:39;;;;;;;32.90;25.47;;;;;;;19.07;73.89;100093.22;5068225;28;20473;-78
2021/07/12 04:52:06;;;;;;;30.60;24.17;;;;;;;18.91;74.64;100088.97;5062307;28;20499;-79
2021/07/12 04:54:33;;;;;;;32.40;26.17;;;;;;;18.93;74.77;100089.59;5062781;28;20694;-79
2021/07/12 04:57:00;;;;;;;32.50;25.27;;;;;;;18.80;75.23;100090.31;5060448;28;20576;-79
2021/07/12 04:59:28;;;;;;;33.53;24.70;;;;;;;18.89;75.12;100082.06;5061886;28;20509;-83
2021/07/12 05:01:55;;;;;;;34.60;24.70;;;;;;;18.78;75.15;100081.56;5061578;28;20477;-83
2021/07/12 05:04:22;;;;;;;30.23;24.00;;;;;;;18.87;74.92;100076.84;5061080;28;20453;-83
2021/07/12 05:06:49;;;;;;;30.00;24.77;;;;;;;18.79;75.15;100074.25;5061735;28;20571;-83
2021/07/12 05:09:15;;;;;;;33.40;25.50;;;;;;;19.01;74.75;100066.94;5075557;28;20484;-76
2021/07/12 05:11:42;;;;;;;34.60;24.53;;;;;;;19.06;74.37;100061.75;5060489;28;20869;-75
2021/07/12 05:14:08;;;;;;;28.47;23.90;;;;;;;18.97;75.24;100065.63;5061416;28;20465;-76
2021/07/12 05:16:36;;;;;;;31.20;24.23;;;;;;;18.90;75.25;100065.59;5079729;28;21071;-83
2021/07/12 05:19:03;;;;;;;36.80;25.37;;;;;;;18.87;75.76;100062.47;5068950;28;21074;-84
2021/07/12 05:21:30;;;;;;;30.27;22.80;;;;;;;19.16;74.41;100069.50;5061476;28;20472;-82
2021/07/12 05:23:57;;;;;;;27.73;22.77;;;;;;;19.51;73.64;100069.41;5061667;28;20477;-82
2021/07/12 05:26:24;;;;;;;29.23;23.57;;;;;;;19.97;71.59;100066.00;5060346;28;20476;-82
2021/07/12 05:28:50;;;;;;;31.07;21.37;;;;;;;20.21;71.63;100066.47;5069563;28;21080;-75
2021/07/12 05:31:17;;;;;;;29.90;21.40;;;;;;;20.70;69.36;100067.91;5074123;28;20831;-75
2021/07/12 05:33:45;;;;;;;28.60;21.00;;;;;;;20.91;68.79;100066.00;5060924;28;21103;-75
2021/07/12 05:36:12;;;;;;;27.10;22.10;;;;;;;21.40;66.97;100068.13;5075205;28;20484;-75
2021/07/12 05:38:38;;;;;;;23.57;19.50;;;;;;;22.74;63.17;100061.72;5077091;28;20461;-75
2021/07/12 05:41:05;;;;;;;21.33;18.93;;;;;;;23.56;60.37;100071.50;5080808;28;20507;-75
2021/07/12 05:43:32;;;;;;;25.10;19.90;;;;;;;23.60;58.88;100061.81;5079953;28;20564;-75
2021/07/12 05:45:58;;;;;;;22.80;19.70;;;;;;;23.69;58.28;100063.97;5064055;28;20481;-73
2021/07/12 05:48:25;;;;;;;19.70;17.60;;;;;;;25.24;54.77;100063.06;5061588;28;20461;-74
2021/07/12 05:50:53;;;;;;;22.13;17.00;;;;;;;26.30;51.69;100050.81;5062454;28;20549;-75
2021/07/12 05:53:20;;;;;;;19.50;17.47;;;;;;;26.43;50.39;100042.22;5067608;28;20588;-75
2021/07/12 05:55:46;;;;;;;22.57;20.20;;;;;;;24.75;55.33;100044.22;5062066;28;20924;-75
2021/07/12 05:58:13;;;;;;;22.37;18.90;;;;;;;25.84;52.52;100050.81;5060424;28;20778;-75
2021/07/12 06:00:40;;;;;;;20.97;18.47;;;;;;;24.77;54.51;100041.25;5054548;28;20469;-73
2021/07/12 06:03:07;;;;;;;22.20;19.80;;;;;;;25.86;51.43;100051.38;5039492;28;20442;-75
2021/07/12 06:05:34;;;;;;;20.90;18.70;;;;;;;27.79;48.13;100050.00;5038416;28;20556;-75
2021/07/12 06:08:02;;;;;;;22.90;18.50;;;;;;;28.59;44.87;100052.09;5039405;28;21090;-75
2021/07/12 06:10:28;;;;;;;21.50;18.00;;;;;;;27.96;45.81;100059.00;5039101;28;20766;-75
2021/07/12 06:12:55;;;;;;;20.37;18.27;;;;;;;27.32;47.35;100054.16;5039182;28;20469;-75
2021/07/12 06:15:22;;;;;;;21.40;19.13;;;;;;;26.36;49.49;100041.56;5039116;28;20489;-75
2021/07/12 06:17:48;;;;;;;21.60;19.37;;;;;;;26.42;49.70;100047.94;5038455;28;20522;-76
2021/07/12 06:20:17;;;;;;;23.17;20.20;;;;;;;25.91;50.32;100043.25;5038524;28;21136;-74
2021/07/12 06:22:45;;;;;;;23.17;20.80;;;;;;;24.60;54.00;100041.16;5039534;28;20438;-75
2021/07/12 06:25:14;;;;;;;24.13;21.20;;;;;;;24.36;55.49;100038.38;5040310;28;20600;-75
2021/07/12 06:27:41;;;;;;;23.13;20.60;;;;;;;24.33;56.16;100038.03;5063333;28;20540;-74
2021/07/12 06:30:08;;;;;;;22.87;19.73;;;;;;;25.14;53.63;100050.00;5061166;28;20516;-74
2021/07/12 06:32:35;;;;;;;23.47;19.93;;;;;;;25.24;53.32;100062.19;5060054;28;20441;-75
2021/07/12 06:35:02;;;;;;;24.40;20.57;;;;;;;25.71;52.18;100064.78;5062841;28;20489;-74
2021/07/12 06:37:29;;;;;;;24.13;21.47;;;;;;;25.10;53.79;100058.91;5042089;28;20517;-75
2021/07/12 06:39:56;;;;;;;23.40;20.90;;;;;;;24.90;54.08;100056.59;5040138;28;20454;-75
2021/07/12 06:42:24;;;;;;;21.87;19.57;;;;;;;25.56;52.71;100051.66;5041193;28;20481;-75
2021/07/12 06:44:51;;;;;;;23.27;19.70;;;;;;;25.41;52.49;100054.09;5042340;28;20465;-75
2021/07/12 06:47:18;;;;;;;24.67;19.80;;;;;;;26.02;50.96;100046.22;5042253;28;20494;-74
2021/07/12 06:49:44;;;;;;;22.03;18.80;;;;;;;27.78;46.38;100046.44;5043112;28;20473;-81
2021/07/12 06:52:11;;;;;;;20.40;18.30;;;;;;;29.56;42.59;100044.28;5041912;28;20624;-81
2021/07/12 06:54:37;;;;;;;24.87;17.43;;;;;;;30.66;40.34;100047.66;5035942;28;20461;-80
2021/07/12 06:57:05;;;;;;;19.57;16.70;;;;;;;30.80;39.34;100039.63;5030184;28;20558;-81
2021/07/12 06:59:33;;;;;;;21.77;17.77;;;;;;;30.75;39.42;100056.19;5040926;28;20474;-81
2021/07/12 07:01:59;;;;;;;19.60;16.70;;;;;;;31.24;39.15;100049.16;5041540;28;20473;-81
2021/07/12 07:04:26;;;;;;;18.67;16.80;;;;;;;31.24;38.76;100054.69;5041271;28;20868;-81
2021/07/12 07:06:52;;;;;;;17.93;16.13;;;;;;;31.37;38.70;100048.53;5041774;28;20501;-81
2021/07/12 07:09:19;;;;;;;21.83;18.70;;;;;;;30.57;40.17;100050.16;5042415;28;20525;-81
2021/07/12 07:11:46;;;;;;;21.33;17.70;;;;;;;31.31;38.82;100050.47;5041122;28;20512;-72
2021/07/12 07:14:12;;;;;;;20.87;18.80;;;;;;;31.25;38.76;100040.59;5042040;28;20466;-75
2021/07/12 07:16:40;;;;;;;20.90;18.80;;;;;;;30.17;40.43;100051.00;5053461;28;20491;-75
2021/07/12 07:19:07;;;;;;;20.50;18.27;;;;;;;29.69;42.07;100056.72;5061221;28;20453;-75
2021/07/12 07:21:34;;;;;;;22.33;20.03;;;;;;;28.35;45.21;100052.47;5061635;28;20536;-81
2021/07/12 07:24:00;;;;;;;20.70;18.47;;;;;;;30.87;39.51;100050.38;5060737;28;20939;-81
2021/07/12 07:26:27;;;;;;;19.33;17.43;;;;;;;30.69;39.51;100062.81;5041048;28;20506;-81
2021/07/12 07:28:56;;;;;;;28.47;19.77;;;;;;;30.84;39.81;100064.72;5042260;28;20454;-81
2021/07/12 07:31:23;;;;;;;18.77;16.93;;;;;;;31.48;38.77;100063.94;5041734;28;20501;-80
2021/07/12 07:33:52;;;;;;;21.03;17.57;;;;;;;31.88;37.74;100061.25;5041809;28;20481;-79
2021/07/12 07:36:18;;;;;;;19.70;17.80;;;;;;;32.23;36.73;100054.63;5039529;28;20474;-78
2021/07/12 07:38:46;;;;;;;17.60;15.77;;;;;;;32.57;36.80;100044.59;5042908;28;20482;-78
2021/07/12 07:41:13;;;;;;;20.00;18.10;;;;;;;31.10;38.85;100055.28;5041820;28;20469;-79
2021/07/12 07:43:39;;;;;;;19.73;17.73;;;;;;;31.07;38.96;100039.25;5041739;28;20454;-79
2021/07/12 07:46:06;;;;;;;19.80;18.00;;;;;;;31.38;38.63;100032.78;5040738;28;20560;-79
2021/07/12 07:48:33;;;;;;;17.67;16.00;;;;;;;32.65;36.56;100039.31;5040999;28;20504;-78
2021/07/12 07:51:01;;;;;;;20.10;18.20;;;;;;;30.36;39.46;100031.97;5041070;28;20477;-79
2021/07/12 07:53:27;;;;;;;18.13;16.23;;;;;;;31.43;38.79;100030.81;5040560;28;20449;-78
2021/07/12 07:55:54;;;;;;;21.33;19.23;;;;;;;29.46;40.67;100035.97;5040994;28;20493;-79
2021/07/12 07:58:21;;;;;;;18.93;16.93;;;;;;;30.80;38.71;100025.81;5041799;28;20580;-79
2021/07/12 08:00:47;;;;;;;20.40;18.50;;;;;;;30.46;39.14;100023.69;5039250;28;20514;-81
2021/07/12 08:03:14;;;;;;;19.37;17.37;;;;;;;30.91;38.56;100029.38;5041732;28;20435;-78
2021/07/12 08:05:41;;;;;;;18.10;16.30;;;;;;;32.44;35.31;100038.66;5040830;28;20512;-80
2021/07/12 08:08:09;;;;;;;19.10;16.40;;;;;;;33.48;33.65;100035.53;5042263;28;20496;-79
2021/07/12 08:10:35;;;;;;;18.57;16.73;;;;;;;34.09;33.38;100037.38;5042128;28;20499;-81
2021/07/12 08:13:02;;;;;;;20.47;18.47;;;;;;;32.44;35.07;100021.22;5044822;28;20466;-77
2021/07/12 08:15:29;;;;;;;18.17;16.37;;;;;;;33.17;33.59;100020.16;5039173;28;20508;-80
2021/07/12 08:17:55;;;;;;;20.03;18.23;;;;;;;33.80;32.67;100022.88;5041723;28;20518;-79
2021/07/12 08:20:22;;;;;;;20.47;18.30;;;;;;;34.12;31.98;100031.22;5040580;28;20502;-81
2021/07/12 08:22:51;;;;;;;20.43;18.60;;;;;;;33.98;32.04;100030.34;5040501;28;21010;-80
2021/07/12 08:25:20;;;;;;;20.67;18.83;;;;;;;32.87;33.69;100018.56;5040000;28;20485;-80
2021/07/12 08:27:47;;;;;;;17.70;16.10;;;;;;;32.88;33.96;100019.38;5040968;28;20477;-81
2021/07/12 08:30:15;;;;;;;20.00;18.20;;;;;;;31.06;36.00;100014.72;5039891;28;20485;-81
2021/07/12 08:32:43;;;;;;;20.13;18.33;;;;;;;29.38;41.86;100020.84;5041102;28;20506;-78
2021/07/12 08:35:10;;;;;;;20.33;18.43;;;;;;;30.23;39.81;100006.59;5039175;28;20529;-81
2021/07/12 08:37:37;;;;;;;19.67;17.70;;;;;;;30.90;38.65;99997.34;5038705;28;20521;-79
2021/07/12 08:40:06;;;;;;;20.20;18.27;;;;;;;31.90;36.46;100006.47;5020575;28;20959;-80
2021/07/12 08:42:34;;;;;;;21.50;19.27;;;;;;;31.31;36.92;99999.94;5020870;28;20546;-80
2021/07/12 08:45:01;;;;;;;21.90;19.70;;;;;;;31.47;37.02;99993.19;5018846;28;20455;-80
2021/07/12 08:47:27;;;;;;;23.33;16.50;;;;;;;31.41;36.33;99997.13;5039847;28;20502;-80
2021/07/12 08:49:54;;;;;;;18.33;16.53;;;;;;;30.28;38.22;99991.16;5042139;28;20491;-81
2021/07/12 08:52:21;;;;;;;18.07;16.30;;;;;;;30.97;38.04;99995.13;5040139;28;20538;-80
2021/07/12 08:54:47;;;;;;;19.40;17.57;;;;;;;31.44;35.56;99988.28;5038420;28;20469;-80
2021/07/12 08:57:14;;;;;;;17.67;16.00;;;;;;;32.68;34.24;99990.00;5039675;28;20482;-80
2021/07/12 08:59:42;;;;;;;18.30;16.67;;;;;;;32.98;33.62;99986.84;5039603;28;20466;-80
2021/07/12 09:02:11;;;;;;;15.40;14.00;;;;;;;31.69;36.04;99980.94;5039225;28;20537;-81
2021/07/12 09:04:39;;;;;;;21.30;19.33;;;;;;;28.74;40.54;99978.72;5039372;28;20517;-79
2021/07/12 09:07:07;;;;;;;19.30;17.43;;;;;;;30.18;38.93;99970.75;5039527;28;20474;-79
2021/07/12 09:09:34;;;;;;;17.87;16.20;;;;;;;31.59;34.66;99973.53;5039334;28;20469;-79
2021/07/12 09:12:10;;;;;;;16.67;15.10;;;;;;;31.13;36.07;99976.59;5038181;28;20476;-78
2021/07/12 09:14:39;;;;;;;20.00;18.17;;;;;;;30.54;38.10;99964.38;5039403;28;20484;-81
2021/07/12 09:17:08;;;;;;;19.00;17.30;;;;;;;29.99;39.62;99972.44;5038523;28;20485;-80
2021/07/12 09:19:36;;;;;;;17.50;15.70;;;;;;;30.58;38.29;99958.00;5039801;28;20450;-79
2021/07/12 09:22:06;;;;;;;14.67;12.70;;;;;;;30.32;38.13;99961.91;5038968;28;20516;-79
2021/07/12 09:24:35;;;;;;;14.57;13.20;;;;;;;30.61;38.30;99959.38;5042690;28;20492;-81
2021/07/12 09:27:23;;;;;;;14.87;13.57;;;;;;;30.94;37.29;99973.63;5058857;28;20473;-80
2021/07/12 09:29:52;;;;;;;19.13;15.80;;;;;;;31.34;35.95;99964.28;5058811;28;20715;-78
2021/07/12 09:32:21;;;;;;;17.10;15.40;;;;;;;32.93;33.99;99963.94;5059151;28;20469;-78
2021/07/12 09:34:49;;;;;;;14.67;13.37;;;;;;;33.25;32.74;99960.50;5057769;28;20707;-79
2021/07/12 09:37:18;;;;;;;14.60;13.30;;;;;;;30.26;38.26;99951.97;5057500;28;20489;-79
2021/07/12 09:39:45;;;;;;;14.60;13.30;;;;;;;29.99;39.09;99953.13;5059515;28;20449;-80
2021/07/12 09:42:13;;;;;;;17.00;15.40;;;;;;;29.33;41.32;99962.16;5059786;28;20507;-80
2021/07/12 09:44:42;;;;;;;13.80;12.50;;;;;;;30.97;36.18;99949.03;5057937;28;20868;-80
2021/07/12 09:47:12;;;;;;;13.73;12.37;;;;;;;32.12;34.77;99947.13;5059013;28;20465;-79
2021/07/12 09:49:40;;;;;;;15.23;13.30;;;;;;;30.89;37.18;99952.38;5059453;28;20514;-80
2021/07/12 09:52:09;;;;;;;13.87;12.50;;;;;;;32.00;35.93;99951.09;5057891;28;20509;-80
2021/07/12 09:54:37;;;;;;;12.40;11.20;;;;;;;32.00;35.75;99944.75;5057366;28;20549;-81
2021/07/12 09:57:08;;;;;;;14.53;13.23;;;;;;;29.61;40.02;99950.63;5061420;28;20473;-79
2021/07/12 09:59:36;;;;;;;15.33;13.93;;;;;;;28.73;40.50;99944.06;5062431;28;20540;-81
2021/07/12 10:02:03;;;;;;;15.37;13.93;;;;;;;29.83;38.78;99944.88;5062601;28;20571;-79
2021/07/12 10:04:30;;;;;;;13.10;11.90;;;;;;;32.14;36.68;99944.91;5061660;28;20457;-80
2021/07/12 10:06:58;;;;;;;12.60;11.50;;;;;;;32.48;34.28;99939.25;5063735;28;20504;-79
2021/07/12 10:09:24;;;;;;;12.47;11.37;;;;;;;32.34;33.48;99938.31;5060066;28;20481;-80
2021/07/12 10:11:52;;;;;;;12.13;11.03;;;;;;;31.65;34.85;99939.22;5062252;28;20507;-78
2021/07/12 10:14:19;;;;;;;12.30;11.20;;;;;;;31.08;35.82;99936.00;5062690;28;20515;-81
2021/07/12 10:16:46;;;;;;;12.07;10.87;;;;;;;31.80;35.84;99921.69;5061503;28;20465;-81
2021/07/12 10:19:13;;;;;;;10.30;9.40;;;;;;;33.77;32.38;99925.31;5062849;28;20496;-81
2021/07/12 10:21:43;;;;;;;12.07;10.97;;;;;;;32.82;31.62;99924.50;5061721;28;20848;-80
2021/07/12 10:24:11;;;;;;;10.80;9.90;;;;;;;31.74;34.52;99919.28;5062815;28;20437;-81
2021/07/12 10:26:55;;;;;;;10.63;9.60;;;;;;;32.64;32.99;99920.59;5062780;28;20500;-80
2021/07/12 10:29:31;;;;;;;11.00;10.00;;;;;;;30.35;36.72;99906.22;5062734;28;20946;-80
2021/07/12 10:32:04;;;;;;;12.73;10.53;;;;;;;30.76;36.07;99901.38;5061440;28;20487;-80
2021/07/12 10:34:35;;;;;;;10.40;9.50;;;;;;;30.14;36.15;99888.91;5062590;28;20794;-80
2021/07/12 10:37:05;;;;;;;11.10;10.20;;;;;;;29.27;39.35;99909.84;5061792;28;20478;-81
2021/07/12 10:40:07;;;;;;;12.20;11.20;;;;;;;30.82;37.66;99899.41;5063283;28;20449;-82
2021/07/12 10:42:59;;;;;;;11.97;10.77;;;;;;;30.53;37.69;99899.25;5063106;28;20456;-82
2021/07/12 10:45:43;;;;;;;11.43;10.40;;;;;;;30.95;36.67;99896.06;5059723;28;20561;-82
2021/07/12 10:48:13;;;;;;;10.30;9.50;;;;;;;31.59;35.80;99885.13;5063285;28;20449;-82
2021/07/12 10:50:41;;;;;;;9.00;8.30;;;;;;;32.83;32.41;99890.97;5063628;28;21080;-79
2021/07/12 10:53:36;;;;;;;8.97;8.27;;;;;;;31.46;35.35;99891.28;5060515;28;20428;-81
2021/07/12 10:56:10;;;;;;;10.50;9.40;;;;;;;30.35;36.88;99886.94;5060616;28;21088;-79
2021/07/12 10:58:53;;;;;;;9.97;9.17;;;;;;;30.13;37.94;99885.28;5062479;28;21049;-81
2021/07/12 11:01:44;;;;;;;16.07;9.67;;;;;;;28.78;40.43;99882.72;5061213;28;20548;-81
2021/07/12 11:04:36;;;;;;;9.40;8.60;;;;;;;29.60;39.22;99882.88;5061718;28;20859;-78
2021/07/12 11:07:05;;;;;;;9.67;8.87;;;;;;;30.83;37.22;99864.34;5061574;28;20496;-80
2021/07/12 11:09:52;;;;;;;9.77;8.97;;;;;;;29.47;38.68;99870.47;5061157;28;20532;-81
2021/07/12 11:12:32;;;;;;;9.47;8.57;;;;;;;28.08;40.38;99871.94;5060201;28;20543;-82
2021/07/12 11:15:10;;;;;;;8.37;7.67;;;;;;;28.39;39.76;99863.03;5060955;28;20485;-81
2021/07/12 11:17:49;;;;;;;8.60;7.83;;;;;;;30.84;36.78;99855.78;5041469;28;20573;-79
2021/07/12 11:20:15;;;;;;;8.43;7.70;;;;;;;29.75;39.06;99867.44;5041578;28;20490;-81